This is the latest recevied weather packets stored in our database for station/object ON7LDS-13. If no packets are shown the sender has not sent any weather packets the latest 10 day(s).
| Time | Temp. | Humidity | Pressure | Rain* | Wind** | Luminosity | Snow |
|---|---|---|---|---|---|---|---|
| 1777724144 | 23.33° C | 56% | 1022.2 hPa | - | - | - | - |
| 1777720546 | 22.78° C | 57% | 1022.8 hPa | - | - | - | - |
| 1777716945 | 22.22° C | 59% | 1023.3 hPa | - | - | - | - |
| 1777714545 | 20.56° C | 58% | 1023.5 hPa | - | - | - | - |
| 1777709143 | 17.78° C | 59% | 1023.9 hPa | - | - | - | - |
| 1777706194 | 16.67° C | 60% | 1024.1 hPa | - | - | - | - |
| 1777703141 | 15° C | 61% | 1024.2 hPa | - | - | - | - |
| 1777700141 | 13.33° C | 61% | 1023.9 hPa | - | - | - | - |
| 1777697741 | 12.22° C | 62% | 1023.8 hPa | - | - | - | - |
| 1777696001 | 11.67° C | 61% | 1023.8 hPa | - | - | - | - |
| 1777686940 | 10.56° C | 60% | 1024.4 hPa | - | - | - | - |
| 1777684541 | 10.56° C | 59% | 1024.6 hPa | - | - | - | - |
| 1777681539 | 10.56° C | 59% | 1025 hPa | - | - | - | - |
| 1777680338 | 11.11° C | 58% | 1025 hPa | - | - | - | - |
| 1777679738 | 11.11° C | 57% | 1025.1 hPa | - | - | - | - |
| 1777679198 | 11.11° C | 57% | 1025.2 hPa | - | - | - | - |
| 1777676738 | 11.67° C | 55% | 1025.5 hPa | - | - | - | - |
| 1777674940 | 12.78° C | 53% | 1025.7 hPa | - | - | - | - |
| 1777673138 | 12.78° C | 52% | 1025.7 hPa | - | - | - | - |
| 1777671338 | 12.78° C | 53% | 1025.8 hPa | - | - | - | - |
| 1777665938 | 14.44° C | 48% | 1025.7 hPa | - | - | - | - |
| 1777664737 | 15.56° C | 45% | 1025.6 hPa | - | - | - | - |
| 1777661766 | 17.78° C | 38% | 1025.4 hPa | - | - | - | - |
| 1777659936 | 19.44° C | 36% | 1025.3 hPa | - | - | - | - |
| 1777655165 | 22.22° C | 32% | 1025.4 hPa | - | - | - | - |
* Rain since midnight (hover to see other rain measurements)
** Current wind speed in m/s (hover to see current wind gust speed)